Time;durP1;ratioP1;P1;durP2;ratioP2;P2;SDS_P1;SDS_P2;PMS_P1;PMS_P2;Temp;Humidity;BMP_temperature;BMP_pressure;BME280_temperature;BME280_humidity;BME280_pressure;Samples;Min_cycle;Max_cycle;Signal;HPM_P1;HPM_P2
2024/03/24 00:01:46;;;;;;;0.20;0.10;;;;;;;;;;5044620;28;20469;-79
2024/03/24 00:04:12;;;;;;;0.20;0.10;;;;;;;;;;5042416;28;20044;-79
2024/03/24 00:06:38;;;;;;;0.20;0.10;;;;;;;;;;5041246;28;20036;-80
2024/03/24 00:09:04;;;;;;;0.20;0.10;;;;;;;;;;5045175;28;20041;-81
2024/03/24 00:11:30;;;;;;;0.20;0.10;;;;;;;;;;5046769;28;20499;-78
2024/03/24 00:13:56;;;;;;;0.20;0.20;;;;;;;;;;5025103;28;20040;-78
2024/03/24 00:16:22;;;;;;;0.40;0.30;;;;;;;;;;5028708;28;20509;-80
2024/03/24 00:18:48;;;;;;;0.20;0.10;;;;;;;;;;5030052;28;20060;-79
2024/03/24 00:21:14;;;;;;;0.20;0.10;;;;;;;;;;5049362;28;20190;-78
2024/03/24 00:23:40;;;;;;;0.20;0.10;;;;;;;;;;5049350;28;20036;-80
2024/03/24 00:26:06;;;;;;;0.20;0.10;;;;;;;;;;5038622;28;20049;-80
2024/03/24 00:28:32;;;;;;;0.20;0.10;;;;;;;;;;5035695;28;20836;-80
2024/03/24 00:30:58;;;;;;;0.30;0.30;;;;;;;;;;5046750;28;20533;-79
2024/03/24 00:33:24;;;;;;;0.38;0.38;;;;;;;;;;5033058;28;20127;-79
2024/03/24 00:35:50;;;;;;;0.20;0.10;;;;;;;;;;5031599;28;20045;-82
2024/03/24 00:38:16;;;;;;;0.20;0.00;;;;;;;;;;5032555;28;20083;-81
2024/03/24 00:40:42;;;;;;;0.30;0.20;;;;;;;;;;5047786;28;20041;-78
2024/03/24 00:43:08;;;;;;;0.20;0.10;;;;;;;;;;5032593;28;20565;-81
2024/03/24 00:45:34;;;;;;;0.20;0.10;;;;;;;;;;5050243;28;20135;-78
2024/03/24 00:48:00;;;;;;;0.20;0.10;;;;;;;;;;5048220;28;20576;-77
2024/03/24 00:50:26;;;;;;;0.20;0.10;;;;;;;;;;5043084;28;20076;-78
2024/03/24 00:52:52;;;;;;;0.22;0.22;;;;;;;;;;5045035;28;20068;-79
2024/03/24 00:55:18;;;;;;;0.20;0.10;;;;;;;;;;5049346;28;20132;-78
2024/03/24 00:57:44;;;;;;;0.20;0.05;;;;;;;;;;5048050;28;20040;-78
2024/03/24 01:00:11;;;;;;;0.20;0.10;;;;;;;;;;5049233;28;20497;-80
2024/03/24 01:02:37;;;;;;;0.20;0.10;;;;;;;;;;5032557;28;20037;-78
2024/03/24 01:05:04;;;;;;;0.85;0.55;;;;;;;;;;5048790;28;20056;-79
2024/03/24 01:07:30;;;;;;;0.50;0.32;;;;;;;;;;5031732;28;20033;-78
2024/03/24 01:09:56;;;;;;;0.20;0.10;;;;;;;;;;5044012;28;20688;-77
2024/03/24 01:12:23;;;;;;;0.20;0.08;;;;;;;;;;5031717;28;20040;-79
2024/03/24 01:14:49;;;;;;;0.20;0.10;;;;;;;;;;5047194;28;20048;-78
2024/03/24 01:17:15;;;;;;;0.20;0.20;;;;;;;;;;5047445;28;20041;-79
2024/03/24 01:19:41;;;;;;;0.20;0.10;;;;;;;;;;5047815;28;20437;-78
2024/03/24 01:22:07;;;;;;;0.20;0.10;;;;;;;;;;5029401;28;20228;-78
2024/03/24 01:24:34;;;;;;;0.20;0.20;;;;;;;;;;5031052;28;20508;-78
2024/03/24 01:27:00;;;;;;;0.20;0.00;;;;;;;;;;5046268;28;20049;-78
2024/03/24 01:29:26;;;;;;;0.20;0.00;;;;;;;;;;5028040;28;20535;-80
2024/03/24 01:31:52;;;;;;;0.20;0.10;;;;;;;;;;5047156;28;20073;-80
2024/03/24 01:34:18;;;;;;;0.22;0.22;;;;;;;;;;5044928;28;20045;-78
2024/03/24 01:36:45;;;;;;;0.20;0.10;;;;;;;;;;5030875;28;20519;-78
2024/03/24 01:39:11;;;;;;;0.20;0.10;;;;;;;;;;5027993;28;21702;-79
2024/03/24 01:41:39;;;;;;;0.85;0.68;;;;;;;;;;5050132;28;20032;-77
2024/03/24 01:44:05;;;;;;;0.20;0.10;;;;;;;;;;5048914;28;20390;-79
2024/03/24 01:46:31;;;;;;;0.20;0.10;;;;;;;;;;5047447;28;20067;-77
2024/03/24 01:48:58;;;;;;;0.20;0.13;;;;;;;;;;5047249;28;20043;-80
2024/03/24 01:51:24;;;;;;;1.42;0.38;;;;;;;;;;5030304;28;20041;-78
2024/03/24 01:53:50;;;;;;;0.20;0.10;;;;;;;;;;5031725;28;20160;-77
2024/03/24 01:56:17;;;;;;;0.20;0.10;;;;;;;;;;5045979;28;20090;-79
2024/03/24 01:58:43;;;;;;;0.20;0.10;;;;;;;;;;5032005;28;20041;-80
2024/03/24 02:01:10;;;;;;;0.20;0.00;;;;;;;;;;5044547;28;20106;-77
2024/03/24 02:03:36;;;;;;;0.20;0.10;;;;;;;;;;5047541;28;20513;-79
2024/03/24 02:06:03;;;;;;;0.20;0.00;;;;;;;;;;5046432;28;20124;-79
2024/03/24 02:08:29;;;;;;;0.20;0.05;;;;;;;;;;5047531;28;20045;-78
2024/03/24 02:10:56;;;;;;;0.20;0.13;;;;;;;;;;5047059;28;20072;-79
2024/03/24 02:13:22;;;;;;;0.20;0.10;;;;;;;;;;5047541;28;20131;-77
2024/03/24 02:15:52;;;;;;;0.20;0.10;;;;;;;;;;5047357;28;20215;-80
2024/03/24 02:18:18;;;;;;;0.20;0.10;;;;;;;;;;5027507;28;20063;-78
2024/03/24 02:20:44;;;;;;;0.20;0.08;;;;;;;;;;5030452;28;20235;-78
2024/03/24 02:23:10;;;;;;;0.20;0.08;;;;;;;;;;5030736;28;20128;-79
2024/03/24 02:25:36;;;;;;;0.20;0.10;;;;;;;;;;5046803;28;20062;-79
2024/03/24 02:28:02;;;;;;;0.20;0.10;;;;;;;;;;5046602;28;20048;-79
2024/03/24 02:30:28;;;;;;;0.20;0.00;;;;;;;;;;5047783;28;20087;-78
2024/03/24 02:32:54;;;;;;;0.20;0.00;;;;;;;;;;5047214;28;20036;-78
2024/03/24 02:35:20;;;;;;;0.20;0.00;;;;;;;;;;5042334;28;20044;-79
2024/03/24 02:37:46;;;;;;;0.20;0.10;;;;;;;;;;5027410;28;20397;-78
2024/03/24 02:40:13;;;;;;;0.20;0.10;;;;;;;;;;5062930;28;20641;-81
2024/03/24 02:42:39;;;;;;;0.20;0.10;;;;;;;;;;5046031;28;20080;-79
2024/03/24 02:45:06;;;;;;;0.20;0.10;;;;;;;;;;5043700;28;20166;-78
2024/03/24 02:47:32;;;;;;;0.20;0.10;;;;;;;;;;5044118;28;20045;-78
2024/03/24 02:50:01;;;;;;;0.20;0.10;;;;;;;;;;5048632;28;20041;-78
2024/03/24 02:52:27;;;;;;;0.20;0.03;;;;;;;;;;5046438;28;20052;-79
2024/03/24 02:54:54;;;;;;;0.20;0.10;;;;;;;;;;5046380;28;20505;-78
2024/03/24 02:57:20;;;;;;;0.20;0.10;;;;;;;;;;5045606;28;20037;-79
2024/03/24 02:59:46;;;;;;;0.20;0.10;;;;;;;;;;5046449;28;20798;-79
2024/03/24 03:02:12;;;;;;;0.20;0.00;;;;;;;;;;5046285;28;20072;-78
2024/03/24 03:04:38;;;;;;;0.20;0.10;;;;;;;;;;5046253;28;20127;-77
2024/03/24 03:07:05;;;;;;;0.20;0.00;;;;;;;;;;5040829;28;20461;-77
2024/03/24 03:09:31;;;;;;;0.20;0.10;;;;;;;;;;5031245;28;20045;-76
2024/03/24 03:11:58;;;;;;;0.20;0.10;;;;;;;;;;5028339;28;20037;-77
2024/03/24 03:14:24;;;;;;;0.20;0.10;;;;;;;;;;5045182;28;20045;-76
2024/03/24 03:16:50;;;;;;;0.20;0.10;;;;;;;;;;5044542;28;20032;-77
2024/03/24 03:19:16;;;;;;;0.20;0.10;;;;;;;;;;5036984;23;20045;-79
2024/03/24 03:21:42;;;;;;;0.20;0.10;;;;;;;;;;5014757;28;20046;-80
2024/03/24 03:24:08;;;;;;;0.20;0.10;;;;;;;;;;5013236;28;20037;-78
2024/03/24 03:26:34;;;;;;;0.20;0.10;;;;;;;;;;5012656;28;20049;-77
2024/03/24 03:29:00;;;;;;;0.20;0.00;;;;;;;;;;5011257;28;20122;-77
2024/03/24 03:31:26;;;;;;;0.20;0.10;;;;;;;;;;5004655;28;20072;-78
2024/03/24 03:33:52;;;;;;;0.20;0.10;;;;;;;;;;4992559;28;20038;-78
2024/03/24 03:36:18;;;;;;;0.20;0.05;;;;;;;;;;4993585;28;20088;-79
2024/03/24 03:38:44;;;;;;;0.43;0.30;;;;;;;;;;4997616;28;20041;-78
2024/03/24 03:41:11;;;;;;;0.20;0.10;;;;;;;;;;5013710;28;20097;-79
2024/03/24 03:43:37;;;;;;;0.20;0.10;;;;;;;;;;5001257;28;20036;-80
2024/03/24 03:46:03;;;;;;;0.20;0.10;;;;;;;;;;5017087;28;20033;-78
2024/03/24 03:48:29;;;;;;;0.20;0.10;;;;;;;;;;5023887;28;20564;-79
2024/03/24 03:50:55;;;;;;;0.20;0.05;;;;;;;;;;5000864;28;20061;-79
2024/03/24 03:53:25;;;;;;;0.20;0.10;;;;;;;;;;5005626;28;20074;-80
2024/03/24 03:55:54;;;;;;;0.20;0.10;;;;;;;;;;5004186;28;20057;-79
2024/03/24 03:58:20;;;;;;;0.20;0.10;;;;;;;;;;4997357;28;20072;-78
2024/03/24 04:00:48;;;;;;;0.20;0.10;;;;;;;;;;5005636;28;20057;-79
2024/03/24 04:03:14;;;;;;;0.20;0.10;;;;;;;;;;5002962;28;20095;-76
2024/03/24 04:05:40;;;;;;;0.20;0.10;;;;;;;;;;5007134;28;20112;-80
2024/03/24 04:08:07;;;;;;;0.20;0.10;;;;;;;;;;5005628;28;20045;-78
2024/03/24 04:10:34;;;;;;;0.20;0.05;;;;;;;;;;5000883;28;20413;-78
2024/03/24 04:13:00;;;;;;;0.20;0.10;;;;;;;;;;5000999;28;20097;-79
2024/03/24 04:15:26;;;;;;;0.20;0.00;;;;;;;;;;5022656;28;20034;-78
2024/03/24 04:17:52;;;;;;;0.20;0.10;;;;;;;;;;5016810;28;20048;-80
2024/03/24 04:20:18;;;;;;;0.20;0.10;;;;;;;;;;5000262;28;20413;-80
2024/03/24 04:22:45;;;;;;;0.20;0.00;;;;;;;;;;5016529;28;20034;-78
2024/03/24 04:25:11;;;;;;;0.20;0.10;;;;;;;;;;5002324;28;20132;-79
2024/03/24 04:27:37;;;;;;;0.20;0.10;;;;;;;;;;5003357;28;20508;-78
2024/03/24 04:30:04;;;;;;;0.20;0.10;;;;;;;;;;5013725;28;20048;-80
2024/03/24 04:32:30;;;;;;;0.20;0.10;;;;;;;;;;4996588;28;20056;-78
2024/03/24 04:34:56;;;;;;;0.20;0.10;;;;;;;;;;5002910;28;20085;-77
2024/03/24 04:37:23;;;;;;;0.20;0.00;;;;;;;;;;4997401;28;20072;-78
2024/03/24 04:39:49;;;;;;;0.20;0.05;;;;;;;;;;5015196;28;20155;-79
2024/03/24 04:42:15;;;;;;;0.20;0.10;;;;;;;;;;4997242;28;20072;-78
2024/03/24 04:44:41;;;;;;;0.20;0.10;;;;;;;;;;5017214;28;20088;-82
2024/03/24 04:47:07;;;;;;;0.20;0.10;;;;;;;;;;5013876;28;20493;-79
2024/03/24 04:49:33;;;;;;;0.20;0.10;;;;;;;;;;4995277;28;20071;-78
2024/03/24 04:51:59;;;;;;;0.20;0.10;;;;;;;;;;4997637;28;20033;-79
2024/03/24 04:54:26;;;;;;;0.20;0.10;;;;;;;;;;5014017;28;20118;-77
2024/03/24 04:56:52;;;;;;;0.20;0.00;;;;;;;;;;4999389;28;20041;-79
2024/03/24 04:59:18;;;;;;;0.20;0.00;;;;;;;;;;5015675;28;20041;-80
2024/03/24 05:01:44;;;;;;;0.20;0.10;;;;;;;;;;5014627;28;20037;-80
2024/03/24 05:04:10;;;;;;;0.20;0.00;;;;;;;;;;5011685;28;20440;-81
2024/03/24 05:06:37;;;;;;;0.20;0.10;;;;;;;;;;5013531;28;20084;-78
2024/03/24 05:09:04;;;;;;;0.20;0.10;;;;;;;;;;5012629;28;20043;-78
2024/03/24 05:11:31;;;;;;;0.20;0.00;;;;;;;;;;4998599;28;20041;-81
2024/03/24 05:13:57;;;;;;;0.20;0.10;;;;;;;;;;5000379;28;20095;-78
2024/03/24 05:16:24;;;;;;;0.20;0.10;;;;;;;;;;5001859;28;20052;-80
2024/03/24 05:18:51;;;;;;;0.20;0.10;;;;;;;;;;5018606;28;20047;-79
2024/03/24 05:21:17;;;;;;;0.20;0.10;;;;;;;;;;4998304;28;20098;-80
2024/03/24 05:23:43;;;;;;;0.20;0.10;;;;;;;;;;5015200;28;20037;-79
2024/03/24 05:26:09;;;;;;;0.20;0.10;;;;;;;;;;4998330;28;20049;-79
2024/03/24 05:28:35;;;;;;;0.20;0.10;;;;;;;;;;5020669;28;20045;-77
2024/03/24 05:31:01;;;;;;;0.20;0.10;;;;;;;;;;5018262;28;20459;-78
2024/03/24 05:33:27;;;;;;;0.20;0.00;;;;;;;;;;4997056;28;20067;-78
2024/03/24 05:36:04;;;;;;;0.20;0.00;;;;;;;;;;5015229;28;20057;-78
2024/03/24 05:38:33;;;;;;;0.20;0.10;;;;;;;;;;5016131;28;20048;-79
2024/03/24 05:40:59;;;;;;;0.20;0.10;;;;;;;;;;5014557;28;20068;-79
2024/03/24 05:43:25;;;;;;;0.20;0.10;;;;;;;;;;5011724;28;20096;-79
2024/03/24 05:45:55;;;;;;;0.20;0.10;;;;;;;;;;5014701;28;20076;-79
2024/03/24 05:48:22;;;;;;;0.20;0.10;;;;;;;;;;4997051;28;20037;-78
2024/03/24 05:51:01;;;;;;;0.20;0.05;;;;;;;;;;5014914;28;20039;-77
2024/03/24 05:53:27;;;;;;;0.20;0.10;;;;;;;;;;5006824;28;20076;-78
2024/03/24 05:55:53;;;;;;;0.20;0.10;;;;;;;;;;5000292;28;20411;-79
2024/03/24 05:58:19;;;;;;;0.20;0.10;;;;;;;;;;4998818;28;20045;-80
2024/03/24 06:00:46;;;;;;;0.20;0.10;;;;;;;;;;5011715;28;20095;-81
2024/03/24 06:03:12;;;;;;;0.30;0.30;;;;;;;;;;5013096;28;20037;-80
2024/03/24 06:05:41;;;;;;;0.20;0.10;;;;;;;;;;4993506;28;20046;-80
2024/03/24 06:08:11;;;;;;;0.20;0.10;;;;;;;;;;5014605;28;20053;-81
2024/03/24 06:10:37;;;;;;;0.20;0.10;;;;;;;;;;5015291;28;20124;-81
2024/03/24 06:13:03;;;;;;;0.20;0.00;;;;;;;;;;4997622;28;20045;-80
2024/03/24 06:15:29;;;;;;;0.20;0.10;;;;;;;;;;5015265;28;20076;-80
2024/03/24 06:17:56;;;;;;;0.20;0.08;;;;;;;;;;4994930;28;20082;-82
2024/03/24 06:20:22;;;;;;;0.20;0.00;;;;;;;;;;5012811;28;20049;-82
2024/03/24 06:22:48;;;;;;;0.20;0.10;;;;;;;;;;4999316;28;20199;-80
2024/03/24 06:25:14;;;;;;;0.20;0.00;;;;;;;;;;5011343;28;20571;-85
2024/03/24 06:27:40;;;;;;;0.20;0.10;;;;;;;;;;4997037;28;20402;-80
2024/03/24 06:30:06;;;;;;;0.20;0.10;;;;;;;;;;5014020;28;20045;-82
2024/03/24 06:32:32;;;;;;;0.75;0.75;;;;;;;;;;4984686;28;20029;-83
2024/03/24 06:35:03;;;;;;;0.20;0.10;;;;;;;;;;4988674;28;20038;-82
2024/03/24 06:37:29;;;;;;;0.20;0.10;;;;;;;;;;4986238;28;20057;-83
2024/03/24 06:39:55;;;;;;;0.20;0.08;;;;;;;;;;4981949;28;20194;-83
2024/03/24 06:42:21;;;;;;;0.20;0.10;;;;;;;;;;4985584;28;20041;-80
2024/03/24 06:44:50;;;;;;;0.20;0.10;;;;;;;;;;5001689;28;20049;-81
2024/03/24 06:47:17;;;;;;;0.20;0.10;;;;;;;;;;5002754;28;20052;-82
2024/03/24 06:49:43;;;;;;;0.20;0.00;;;;;;;;;;5018321;28;20061;-81
2024/03/24 06:52:10;;;;;;;0.20;0.10;;;;;;;;;;4986546;28;20046;-79
2024/03/24 06:54:36;;;;;;;0.40;0.40;;;;;;;;;;5005849;28;20077;-81
2024/03/24 06:57:02;;;;;;;0.20;0.10;;;;;;;;;;5007496;28;20129;-80
2024/03/24 06:59:28;;;;;;;0.20;0.08;;;;;;;;;;4991519;28;20163;-80
2024/03/24 07:01:54;;;;;;;0.20;0.10;;;;;;;;;;4987033;28;20421;-82
2024/03/24 07:04:20;;;;;;;0.20;0.10;;;;;;;;;;4990177;28;20045;-81
2024/03/24 07:06:46;;;;;;;0.20;0.10;;;;;;;;;;5005150;28;20049;-81
2024/03/24 07:09:12;;;;;;;0.20;0.00;;;;;;;;;;4989848;28;20045;-82
2024/03/24 07:11:38;;;;;;;0.20;0.10;;;;;;;;;;5006545;28;20548;-83
2024/03/24 07:14:04;;;;;;;0.20;0.10;;;;;;;;;;4991808;28;20056;-79
2024/03/24 07:16:30;;;;;;;0.20;0.10;;;;;;;;;;5002970;28;20042;-79
2024/03/24 07:18:56;;;;;;;0.20;0.10;;;;;;;;;;4989329;28;20037;-80
2024/03/24 07:21:22;;;;;;;0.20;0.00;;;;;;;;;;4986281;28;20056;-79
2024/03/24 07:23:51;;;;;;;0.20;0.10;;;;;;;;;;5004558;28;20497;-79
2024/03/24 07:26:17;;;;;;;0.20;0.10;;;;;;;;;;5017300;28;20049;-82
2024/03/24 07:28:43;;;;;;;0.52;0.52;;;;;;;;;;4988872;28;20042;-83
2024/03/24 07:31:09;;;;;;;0.20;0.00;;;;;;;;;;5005475;28;20047;-81
2024/03/24 07:33:35;;;;;;;0.20;0.00;;;;;;;;;;4987859;28;20045;-80
2024/03/24 07:36:01;;;;;;;0.20;0.10;;;;;;;;;;4984459;28;20037;-83
2024/03/24 07:38:27;;;;;;;0.20;0.10;;;;;;;;;;5000390;28;20410;-83
2024/03/24 07:40:53;;;;;;;0.20;0.10;;;;;;;;;;4984101;28;20048;-82
2024/03/24 07:43:19;;;;;;;0.20;0.10;;;;;;;;;;5000980;28;20494;-80
2024/03/24 07:45:45;;;;;;;0.20;0.00;;;;;;;;;;5015428;28;20045;-81
2024/03/24 07:48:11;;;;;;;0.20;0.10;;;;;;;;;;4986733;28;20132;-82
2024/03/24 07:50:40;;;;;;;0.20;0.10;;;;;;;;;;5002679;28;20053;-82
2024/03/24 07:53:06;;;;;;;0.20;0.10;;;;;;;;;;5002005;28;20049;-79
2024/03/24 07:55:32;;;;;;;0.20;0.00;;;;;;;;;;5015017;28;20075;-79
2024/03/24 07:57:58;;;;;;;0.20;0.10;;;;;;;;;;4995986;28;20053;-81
2024/03/24 08:00:24;;;;;;;0.20;0.10;;;;;;;;;;5009645;28;20517;-82
2024/03/24 08:02:50;;;;;;;0.20;0.10;;;;;;;;;;4994357;28;20073;-82
2024/03/24 08:05:16;;;;;;;0.20;0.10;;;;;;;;;;4994357;28;20125;-80
2024/03/24 08:07:42;;;;;;;0.20;0.10;;;;;;;;;;4994749;28;20076;-80
2024/03/24 08:10:12;;;;;;;0.20;0.10;;;;;;;;;;4994689;28;20073;-80
2024/03/24 08:12:40;;;;;;;0.20;0.10;;;;;;;;;;4995397;28;20053;-81
2024/03/24 08:15:06;;;;;;;0.98;0.90;;;;;;;;;;4992327;28;20073;-81
2024/03/24 08:17:32;;;;;;;0.20;0.10;;;;;;;;;;4993998;28;20414;-82
2024/03/24 08:19:58;;;;;;;0.20;0.10;;;;;;;;;;4993329;28;20041;-81
2024/03/24 08:22:24;;;;;;;0.20;0.00;;;;;;;;;;4991721;28;20079;-79
2024/03/24 08:24:50;;;;;;;0.20;0.10;;;;;;;;;;5009438;28;20067;-80
2024/03/24 08:27:17;;;;;;;0.60;0.22;;;;;;;;;;4992279;28;20414;-79
2024/03/24 08:29:43;;;;;;;2.47;0.65;;;;;;;;;;5007484;28;20101;-81
2024/03/24 08:32:09;;;;;;;0.20;0.10;;;;;;;;;;4991206;28;20124;-82
2024/03/24 08:34:35;;;;;;;0.20;0.10;;;;;;;;;;4990091;28;20141;-82
2024/03/24 08:37:01;;;;;;;0.20;0.10;;;;;;;;;;4991599;28;20033;-82
2024/03/24 08:39:30;;;;;;;0.20;0.10;;;;;;;;;;4990775;28;20034;-82
2024/03/24 08:41:57;;;;;;;0.20;0.10;;;;;;;;;;5009621;28;20046;-84
2024/03/24 08:44:24;;;;;;;0.20;0.10;;;;;;;;;;4989602;28;20090;-80
2024/03/24 08:46:50;;;;;;;0.20;0.10;;;;;;;;;;5025344;28;20626;-81
2024/03/24 08:49:16;;;;;;;0.20;0.10;;;;;;;;;;4993189;28;20049;-82
2024/03/24 08:51:42;;;;;;;0.20;0.10;;;;;;;;;;5010028;28;20608;-80
2024/03/24 08:54:08;;;;;;;0.20;0.10;;;;;;;;;;4992154;28;20041;-85
2024/03/24 08:56:34;;;;;;;0.20;0.10;;;;;;;;;;5008932;28;20040;-80
2024/03/24 08:59:00;;;;;;;0.32;0.32;;;;;;;;;;4991033;28;20064;-82
2024/03/24 09:01:26;;;;;;;0.20;0.10;;;;;;;;;;5007593;28;20037;-80
2024/03/24 09:03:52;;;;;;;0.20;0.10;;;;;;;;;;5009033;28;20060;-81
2024/03/24 09:06:21;;;;;;;0.20;0.10;;;;;;;;;;4990015;28;20033;-82
2024/03/24 09:08:47;;;;;;;0.20;0.10;;;;;;;;;;4994328;28;20041;-80
2024/03/24 09:11:13;;;;;;;0.20;0.10;;;;;;;;;;4993675;28;20045;-81
2024/03/24 09:13:39;;;;;;;0.20;0.10;;;;;;;;;;4988901;28;20048;-80
2024/03/24 09:16:05;;;;;;;0.20;0.10;;;;;;;;;;5009280;28;20050;-83
2024/03/24 09:18:31;;;;;;;0.20;0.10;;;;;;;;;;5027018;23;20045;-80
2024/03/24 09:21:04;;;;;;;0.20;0.10;;;;;;;;;;5006448;28;20068;-80
2024/03/24 09:23:30;;;;;;;0.20;0.10;;;;;;;;;;5007791;28;20037;-78
2024/03/24 09:25:56;;;;;;;0.20;0.10;;;;;;;;;;5023713;28;20110;-79
2024/03/24 09:28:22;;;;;;;0.20;0.00;;;;;;;;;;5026523;28;20052;-80
2024/03/24 09:31:10;;;;;;;0.20;0.10;;;;;;;;;;5028930;28;20044;-79
2024/03/24 09:33:36;;;;;;;0.20;0.10;;;;;;;;;;5041977;28;20404;-80
2024/03/24 09:36:02;;;;;;;0.20;0.10;;;;;;;;;;5024974;28;20047;-80
2024/03/24 09:38:28;;;;;;;0.20;0.10;;;;;;;;;;5042751;28;20450;-79
2024/03/24 09:40:55;;;;;;;0.20;0.10;;;;;;;;;;5054407;28;20516;-84
2024/03/24 09:43:22;;;;;;;0.20;0.10;;;;;;;;;;5043456;28;20037;-82
2024/03/24 09:45:48;;;;;;;0.20;0.10;;;;;;;;;;5041387;28;20052;-79
2024/03/24 09:48:15;;;;;;;0.20;0.10;;;;;;;;;;5044739;28;20048;-80
2024/03/24 09:50:42;;;;;;;0.20;0.10;;;;;;;;;;5027877;28;20048;-78
2024/03/24 09:53:11;;;;;;;0.20;0.00;;;;;;;;;;5028080;28;20048;-80
2024/03/24 09:55:38;;;;;;;0.20;0.10;;;;;;;;;;5043245;28;20079;-80
2024/03/24 09:58:04;;;;;;;0.20;0.10;;;;;;;;;;5044539;28;20540;-80
2024/03/24 10:00:30;;;;;;;0.20;0.10;;;;;;;;;;5056657;28;20044;-80
2024/03/24 10:02:56;;;;;;;0.20;0.10;;;;;;;;;;5044286;28;20062;-79
2024/03/24 10:05:24;;;;;;;0.20;0.00;;;;;;;;;;5039799;28;20044;-81
2024/03/24 10:07:50;;;;;;;0.20;0.10;;;;;;;;;;5025646;28;20448;-79
2024/03/24 10:10:16;;;;;;;0.20;0.10;;;;;;;;;;5043929;28;20099;-78
2024/03/24 10:13:03;;;;;;;0.20;0.10;;;;;;;;;;5041814;28;20079;-79
2024/03/24 10:15:29;;;;;;;0.20;0.00;;;;;;;;;;5043966;28;20040;-77
2024/03/24 10:18:04;;;;;;;0.20;0.10;;;;;;;;;;5041692;28;20036;-79
2024/03/24 10:20:31;;;;;;;0.20;0.10;;;;;;;;;;5026608;28;20146;-78
2024/03/24 10:22:58;;;;;;;0.20;0.10;;;;;;;;;;5044141;28;20079;-79
2024/03/24 10:25:25;;;;;;;0.20;0.00;;;;;;;;;;5044205;28;20051;-82
2024/03/24 10:27:51;;;;;;;0.20;0.10;;;;;;;;;;5042627;28;20580;-78
2024/03/24 10:30:18;;;;;;;0.20;0.10;;;;;;;;;;5046332;28;20042;-83
2024/03/24 10:32:44;;;;;;;0.20;0.00;;;;;;;;;;5028357;28;20408;-79
2024/03/24 10:35:10;;;;;;;0.20;0.10;;;;;;;;;;5040519;28;20047;-79
2024/03/24 10:37:37;;;;;;;0.20;0.10;;;;;;;;;;5041697;28;20056;-79
2024/03/24 10:40:06;;;;;;;0.20;0.00;;;;;;;;;;5039919;28;20048;-80
2024/03/24 10:42:33;;;;;;;0.20;0.10;;;;;;;;;;5040710;28;20051;-79
2024/03/24 10:45:05;;;;;;;0.20;0.15;;;;;;;;;;5042460;28;20048;-79
2024/03/24 10:47:32;;;;;;;0.20;0.10;;;;;;;;;;5024336;28;20051;-78
2024/03/24 10:49:58;;;;;;;0.20;0.10;;;;;;;;;;5042818;28;20052;-80
2024/03/24 10:52:31;;;;;;;0.20;0.10;;;;;;;;;;5040064;28;20040;-78
2024/03/24 10:54:57;;;;;;;;;;;;;;;;;;5041419;28;20036;-79
2024/03/24 10:57:28;;;;;;;0.20;0.00;;;;;;;;;;5020180;28;19920;-81
2024/03/24 10:59:54;;;;;;;0.20;0.10;;;;;;;;;;5043813;28;20082;-80
2024/03/24 11:02:21;;;;;;;0.20;0.00;;;;;;;;;;5039240;28;20040;-78
2024/03/24 11:04:48;;;;;;;0.20;0.10;;;;;;;;;;5040653;28;20617;-79
2024/03/24 11:07:15;;;;;;;0.20;0.10;;;;;;;;;;5058517;28;20145;-83
2024/03/24 11:09:41;;;;;;;0.20;0.10;;;;;;;;;;5027388;28;20044;-79
2024/03/24 11:12:09;;;;;;;0.20;0.10;;;;;;;;;;5059894;28;20456;-79
2024/03/24 11:14:35;;;;;;;0.20;0.10;;;;;;;;;;5041686;28;20097;-79
2024/03/24 11:17:02;;;;;;;0.20;0.10;;;;;;;;;;5041173;28;20567;-79
2024/03/24 11:19:28;;;;;;;0.20;0.10;;;;;;;;;;5039838;28;20052;-79
2024/03/24 11:21:57;;;;;;;0.20;0.10;;;;;;;;;;5041560;28;20036;-79
2024/03/24 11:24:24;;;;;;;0.20;0.10;;;;;;;;;;5060186;28;20059;-80
2024/03/24 11:26:50;;;;;;;0.20;0.10;;;;;;;;;;5042492;28;20434;-81
2024/03/24 11:29:34;;;;;;;0.20;0.10;;;;;;;;;;5042672;28;20052;-82
2024/03/24 11:32:00;;;;;;;0.20;0.10;;;;;;;;;;5026149;28;20445;-80
2024/03/24 11:34:26;;;;;;;0.20;0.05;;;;;;;;;;5040660;28;20063;-80
2024/03/24 11:36:52;;;;;;;0.20;0.08;;;;;;;;;;5042965;28;20033;-79
2024/03/24 11:39:19;;;;;;;0.20;0.10;;;;;;;;;;5041790;28;20029;-79
2024/03/24 11:41:52;;;;;;;0.20;0.00;;;;;;;;;;5043980;28;20045;-78
2024/03/24 11:44:18;;;;;;;0.20;0.20;;;;;;;;;;5025066;28;20040;-80
2024/03/24 11:46:44;;;;;;;0.20;0.10;;;;;;;;;;5039530;28;20044;-80
2024/03/24 11:49:11;;;;;;;0.20;0.10;;;;;;;;;;5041638;28;20044;-79
2024/03/24 11:51:40;;;;;;;0.20;0.00;;;;;;;;;;5041163;28;20036;-81
2024/03/24 11:54:06;;;;;;;0.20;0.10;;;;;;;;;;5043274;28;20376;-80
2024/03/24 11:56:33;;;;;;;0.20;0.00;;;;;;;;;;5039529;28;20039;-81
2024/03/24 11:58:59;;;;;;;0.20;0.10;;;;;;;;;;5040855;28;20509;-79
2024/03/24 12:01:25;;;;;;;0.20;0.10;;;;;;;;;;5031570;28;20040;-80
2024/03/24 12:03:52;;;;;;;0.20;0.00;;;;;;;;;;5043662;28;20547;-82
2024/03/24 12:06:19;;;;;;;0.20;0.10;;;;;;;;;;5040987;28;20044;-80
2024/03/24 12:08:46;;;;;;;0.20;0.10;;;;;;;;;;5037464;28;20047;-80
2024/03/24 12:11:14;;;;;;;0.20;0.10;;;;;;;;;;5040558;28;20040;-81
2024/03/24 12:13:40;;;;;;;0.20;0.00;;;;;;;;;;5042841;28;20079;-81
2024/03/24 12:16:07;;;;;;;0.20;0.10;;;;;;;;;;5045017;28;20055;-79
2024/03/24 12:18:34;;;;;;;0.20;0.10;;;;;;;;;;5026575;28;20616;-81
2024/03/24 12:21:00;;;;;;;0.20;0.10;;;;;;;;;;5045513;28;20048;-80
2024/03/24 12:23:27;;;;;;;0.20;0.10;;;;;;;;;;5027736;28;20040;-80
2024/03/24 12:25:53;;;;;;;0.20;0.10;;;;;;;;;;5028102;28;20097;-80
2024/03/24 12:28:20;;;;;;;0.82;0.25;;;;;;;;;;5044528;28;20048;-80
2024/03/24 12:30:53;;;;;;;0.20;0.10;;;;;;;;;;5045435;28;20056;-79
2024/03/24 12:33:19;;;;;;;0.20;0.10;;;;;;;;;;5041328;28;20044;-80
2024/03/24 12:35:46;;;;;;;0.20;0.10;;;;;;;;;;5042760;28;20075;-79
2024/03/24 12:38:12;;;;;;;0.20;0.05;;;;;;;;;;5028566;28;20104;-81
2024/03/24 12:40:39;;;;;;;0.20;0.10;;;;;;;;;;5046415;28;20036;-82
2024/03/24 12:43:12;;;;;;;0.20;0.10;;;;;;;;;;5045412;28;20036;-81
2024/03/24 12:45:38;;;;;;;0.55;0.55;;;;;;;;;;5041277;28;20044;-83
2024/03/24 12:48:10;;;;;;;0.20;0.10;;;;;;;;;;5044864;28;20127;-80
2024/03/24 12:50:36;;;;;;;;;;;;;;;;;;5046154;28;20068;-80
2024/03/24 12:53:08;;;;;;;0.20;0.00;;;;;;;;;;5030168;28;21336;-79
2024/03/24 12:55:37;;;;;;;0.20;0.10;;;;;;;;;;5044062;28;20108;-81
2024/03/24 12:58:08;;;;;;;0.20;0.00;;;;;;;;;;5045254;28;20292;-81
2024/03/24 13:00:35;;;;;;;0.20;0.05;;;;;;;;;;5046088;28;20098;-79
2024/03/24 13:03:02;;;;;;;0.20;0.10;;;;;;;;;;5049119;28;20028;-80
2024/03/24 13:05:28;;;;;;;0.20;0.20;;;;;;;;;;5044204;28;20072;-78
2024/03/24 13:07:54;;;;;;;0.20;0.05;;;;;;;;;;5047291;28;20125;-80
2024/03/24 13:10:20;;;;;;;0.20;0.10;;;;;;;;;;5044649;28;20068;-81
2024/03/24 13:12:49;;;;;;;0.20;0.10;;;;;;;;;;5044042;28;20044;-79
2024/03/24 13:15:16;;;;;;;0.20;0.00;;;;;;;;;;5044537;28;20044;-80
2024/03/24 13:17:43;;;;;;;0.20;0.00;;;;;;;;;;5041661;28;20044;-83
2024/03/24 13:20:11;;;;;;;0.20;0.10;;;;;;;;;;5046331;28;20508;-82
2024/03/24 13:22:37;;;;;;;0.20;0.10;;;;;;;;;;5045129;28;20040;-83
2024/03/24 13:25:07;;;;;;;0.20;0.03;;;;;;;;;;5024487;28;20040;-80
2024/03/24 13:27:33;;;;;;;0.20;0.10;;;;;;;;;;5029725;28;20044;-80
2024/03/24 13:30:00;;;;;;;0.20;0.10;;;;;;;;;;5025886;28;20380;-79
2024/03/24 13:32:26;;;;;;;0.20;0.08;;;;;;;;;;5042863;28;20067;-82
2024/03/24 13:34:52;;;;;;;0.20;0.10;;;;;;;;;;5060401;28;20044;-83
2024/03/24 13:37:27;;;;;;;0.20;0.00;;;;;;;;;;5045878;28;20037;-82
2024/03/24 13:40:05;;;;;;;0.20;0.10;;;;;;;;;;5042200;28;20040;-84
2024/03/24 13:42:40;;;;;;;0.20;0.10;;;;;;;;;;5035018;28;20048;-82
2024/03/24 13:45:26;;;;;;;0.20;0.10;;;;;;;;;;5031513;28;20047;-84
2024/03/24 13:48:09;;;;;;;0.20;0.10;;;;;;;;;;5045631;28;20041;-82
2024/03/24 13:50:35;;;;;;;0.20;0.10;;;;;;;;;;5029016;28;20056;-80
2024/03/24 13:53:02;;;;;;;0.20;0.10;;;;;;;;;;5046431;28;20819;-82
2024/03/24 13:55:28;;;;;;;0.20;0.10;;;;;;;;;;5026594;28;20456;-82
2024/03/24 13:57:54;;;;;;;0.20;0.10;;;;;;;;;;5044917;28;20097;-83
2024/03/24 14:00:23;;;;;;;0.20;0.10;;;;;;;;;;5046229;28;20562;-79
2024/03/24 14:02:49;;;;;;;0.20;0.10;;;;;;;;;;5044151;28;20044;-81
2024/03/24 14:05:15;;;;;;;0.20;0.10;;;;;;;;;;5027607;28;20045;-79
2024/03/24 14:07:41;;;;;;;0.20;0.00;;;;;;;;;;5024065;28;20044;-81
2024/03/24 14:10:08;;;;;;;0.20;0.10;;;;;;;;;;5045377;28;20321;-81
2024/03/24 14:12:53;;;;;;;0.20;0.00;;;;;;;;;;5045352;28;20064;-82
2024/03/24 14:15:31;;;;;;;0.20;0.10;;;;;;;;;;5025194;28;20032;-82
2024/03/24 14:18:12;;;;;;;0.20;0.10;;;;;;;;;;5029015;28;20404;-83
2024/03/24 14:20:46;;;;;;;0.20;0.10;;;;;;;;;;5063289;28;20075;-81
2024/03/24 14:23:12;;;;;;;;;;;;;;;;;;5043758;28;20051;-79
2024/03/24 14:25:41;;;;;;;1.40;0.28;;;;;;;;;;5044022;28;20190;-81
2024/03/24 14:28:07;;;;;;;0.20;0.10;;;;;;;;;;5035617;28;20890;-85
2024/03/24 14:30:33;;;;;;;0.20;0.03;;;;;;;;;;5036740;28;20047;-79
2024/03/24 14:32:59;;;;;;;0.20;0.10;;;;;;;;;;5039909;28;20041;-80
2024/03/24 14:35:32;;;;;;;0.20;0.10;;;;;;;;;;5019982;28;20103;-79
2024/03/24 14:38:02;;;;;;;0.20;0.00;;;;;;;;;;5018527;28;20675;-78
2024/03/24 14:40:34;;;;;;;0.20;0.08;;;;;;;;;;5037359;28;20644;-81
2024/03/24 14:43:06;;;;;;;0.20;0.10;;;;;;;;;;5023720;28;20040;-82